createdAt,value
2023-04-18T05:27:19.574Z,7.88
2023-04-18T05:32:09.762Z,7.30
2023-04-18T05:37:00.288Z,7.10
2023-04-18T05:41:53.088Z,8.35
2023-04-18T05:51:33.080Z,8.82
2023-04-18T05:56:23.185Z,7.97
2023-04-18T06:01:16.590Z,7.80
2023-04-18T06:06:06.895Z,5.72
2023-04-18T06:10:56.645Z,9.52
2023-04-18T06:15:46.532Z,7.28
2023-04-18T06:20:39.218Z,9.13
2023-04-18T06:30:22.248Z,9.02
2023-04-18T06:35:12.783Z,8.15
2023-04-18T06:40:05.498Z,10.50
2023-04-18T06:49:48.416Z,10.90
2023-04-18T06:54:41.028Z,8.82
2023-04-18T06:59:34.048Z,10.25
2023-04-18T07:04:25.336Z,9.68
2023-04-18T07:09:15.248Z,10.05
2023-04-18T07:14:12.839Z,9.88
2023-04-18T07:19:05.714Z,9.00
2023-04-18T07:28:45.929Z,7.65
2023-04-18T07:33:36.766Z,8.27
2023-04-18T07:38:32.982Z,7.93
2023-04-18T07:43:22.891Z,7.32
2023-04-18T07:48:12.935Z,8.48
2023-04-18T07:53:04.043Z,6.35
2023-04-18T07:57:56.663Z,6.63
2023-04-18T08:07:37.510Z,5.45
2023-04-18T08:12:27.798Z,7.32
2023-04-18T08:17:20.895Z,8.02
2023-04-18T08:22:18.456Z,6.03
2023-04-18T08:27:08.896Z,8.00
2023-04-18T08:31:59.919Z,7.00
2023-04-18T08:36:56.879Z,7.20
2023-04-18T08:41:57.037Z,8.73
2023-04-18T08:46:47.399Z,8.50
2023-04-18T08:51:37.280Z,8.77
2023-04-18T08:56:32.136Z,8.10
2023-04-18T09:01:23.228Z,8.13
2023-04-18T09:06:19.413Z,7.32
2023-04-18T09:11:44.069Z,8.17
2023-04-18T09:16:51.509Z,5.70
2023-04-18T09:21:49.009Z,6.60
2023-04-18T09:26:39.663Z,7.55
2023-04-18T09:31:32.033Z,7.70
2023-04-18T09:36:27.667Z,8.20
2023-04-18T09:41:21.250Z,7.18
2023-04-18T09:46:12.803Z,8.00
2023-04-18T09:51:10.561Z,7.30
2023-04-18T09:56:03.779Z,7.87
2023-04-18T10:00:56.421Z,6.72
2023-04-18T10:05:47.714Z,6.07
2023-04-18T10:10:39.073Z,5.63
2023-04-18T10:15:36.935Z,6.18
2023-04-18T10:20:28.971Z,6.05
2023-04-18T10:25:50.066Z,5.38
2023-04-18T10:30:59.971Z,5.57
2023-04-18T10:36:34.019Z,4.87
2023-04-18T10:41:27.178Z,5.20
2023-04-18T10:46:31.066Z,4.68
2023-04-18T10:51:25.097Z,5.13
2023-04-18T10:56:19.550Z,4.07
2023-04-18T11:01:11.017Z,2.90
2023-04-18T11:06:21.426Z,2.03
2023-04-18T11:11:11.743Z,2.03
2023-04-18T11:16:01.847Z,2.30
2023-04-18T11:20:53.271Z,1.43
2023-04-18T11:25:46.064Z,0.80
2023-04-18T11:30:40.470Z,0.80
2023-04-18T11:35:31.950Z,0.60
2023-04-18T11:40:23.486Z,0.50
2023-04-18T11:45:18.344Z,0.30
2023-04-18T11:50:11.487Z,0.60
2023-04-18T11:55:13.729Z,0.90
2023-04-18T12:00:05.527Z,1.40
2023-04-18T12:05:03.373Z,1.40
2023-04-18T12:09:55.535Z,1.63
2023-04-18T12:14:46.373Z,2.27
2023-04-18T12:19:36.658Z,2.07
2023-04-18T12:24:29.612Z,2.17
2023-04-18T12:29:19.647Z,2.58
2023-04-18T12:34:09.556Z,3.08
2023-04-18T12:38:59.567Z,3.45
2023-04-18T12:43:52.536Z,3.60
2023-04-18T12:48:45.233Z,3.70
2023-04-18T12:53:35.207Z,4.32
2023-04-18T12:58:28.130Z,4.65
2023-04-18T13:03:22.494Z,4.72
2023-04-18T13:08:17.530Z,5.95
2023-04-18T13:13:08.046Z,5.73
2023-04-18T13:18:06.413Z,5.57
2023-04-18T13:22:59.282Z,5.68
2023-04-18T13:27:53.010Z,6.70
2023-04-18T13:32:44.140Z,6.25
2023-04-18T13:37:37.884Z,6.47
2023-04-18T13:42:31.560Z,6.60
2023-04-18T13:47:22.270Z,7.40
2023-04-18T13:52:12.260Z,6.65
2023-04-18T13:57:11.593Z,6.50
2023-04-18T14:02:04.397Z,7.57
2023-04-18T14:06:54.585Z,7.93
2023-04-18T14:11:46.507Z,7.80
2023-04-18T14:16:36.869Z,7.73
2023-04-18T14:21:33.383Z,8.25
2023-04-18T14:26:24.543Z,8.83
2023-04-18T14:31:14.560Z,9.55
2023-04-18T14:36:12.255Z,9.48
2023-04-18T14:41:07.352Z,9.67
2023-04-18T14:45:59.012Z,10.00
2023-04-18T14:50:49.532Z,10.23
2023-04-18T14:55:39.461Z,10.38
2023-04-18T15:00:33.320Z,10.60
2023-04-18T15:05:24.068Z,11.18
2023-04-18T15:10:15.541Z,11.38
2023-04-18T15:15:05.413Z,11.07
2023-04-18T15:19:57.870Z,11.83
2023-04-18T15:24:47.781Z,11.43
2023-04-18T15:29:38.478Z,11.73
2023-04-18T15:34:28.651Z,10.75
2023-04-18T15:39:24.629Z,12.70
2023-04-18T15:44:16.869Z,12.67
2023-04-18T15:49:06.749Z,12.90
2023-04-18T15:53:56.995Z,11.83
2023-04-18T15:58:49.438Z,12.45
2023-04-18T16:03:39.846Z,12.47
2023-04-18T16:08:31.927Z,12.32
2023-04-18T16:13:23.103Z,12.35
2023-04-18T16:18:15.526Z,13.15
2023-04-18T16:23:05.623Z,12.63
2023-04-18T16:27:55.516Z,13.07
2023-04-18T16:32:46.922Z,12.88
2023-04-18T16:37:39.591Z,12.50
2023-04-18T16:42:29.535Z,12.68
2023-04-18T16:47:20.630Z,12.57
2023-04-18T16:52:10.739Z,13.50
2023-04-18T16:57:03.561Z,12.90
2023-04-18T17:01:53.628Z,12.60
2023-04-18T17:06:44.182Z,11.15
2023-04-18T17:11:38.785Z,10.82
2023-04-18T17:16:32.200Z,10.40
2023-04-18T17:21:22.033Z,10.17
2023-04-18T17:26:12.236Z,10.00
2023-04-18T17:31:02.217Z,10.35
2023-04-18T17:35:54.770Z,10.40
2023-04-18T17:40:45.099Z,10.03
2023-04-18T17:45:35.233Z,11.15
2023-04-18T17:50:25.490Z,10.83
2023-04-18T17:55:18.281Z,10.80
2023-04-18T18:00:12.005Z,10.00
2023-04-18T18:05:05.940Z,10.15
2023-04-18T18:09:56.141Z,9.83
2023-04-18T18:14:48.921Z,9.35
2023-04-18T18:19:39.192Z,10.77
2023-04-18T18:24:29.263Z,10.50
2023-04-18T18:29:19.525Z,10.50
2023-04-18T18:34:11.924Z,11.10
2023-04-18T18:39:01.931Z,10.68
2023-04-18T18:43:51.877Z,11.00
2023-04-18T18:48:41.780Z,11.20
2023-04-18T18:53:35.819Z,11.30
2023-04-18T18:58:26.773Z,11.73
2023-04-18T19:03:20.360Z,11.05
2023-04-18T19:08:12.678Z,11.70
2023-04-18T19:13:05.196Z,12.70
2023-04-18T19:17:55.111Z,12.23
2023-04-18T19:22:45.006Z,12.07
2023-04-18T19:27:35.324Z,11.55
2023-04-18T19:32:28.012Z,12.23
2023-04-18T19:37:19.054Z,12.77
2023-04-18T19:42:08.981Z,13.43
2023-04-18T19:46:58.973Z,13.70
2023-04-18T19:51:53.714Z,13.00
2023-04-18T19:56:43.969Z,13.37
2023-04-18T20:01:33.794Z,12.82
2023-04-18T20:06:25.409Z,12.32
2023-04-18T20:11:17.878Z,13.05
2023-04-18T20:16:08.982Z,13.00
2023-04-18T20:20:58.951Z,12.93
2023-04-18T20:25:48.764Z,14.00
2023-04-18T20:30:44.875Z,13.05
2023-04-18T20:35:34.853Z,13.38
2023-04-18T20:40:25.780Z,14.32
2023-04-18T20:45:16.341Z,12.68
2023-04-18T20:50:11.148Z,12.45
2023-04-18T20:55:01.273Z,13.02
2023-04-18T20:59:51.130Z,13.05
2023-04-18T21:04:41.235Z,11.65
2023-04-18T21:09:36.731Z,11.17
2023-04-18T21:14:26.783Z,11.38
2023-04-18T21:19:16.640Z,10.82
2023-04-18T21:24:06.998Z,11.30
2023-04-18T21:29:02.090Z,11.10
2023-04-18T21:33:55.224Z,10.00
2023-04-18T21:38:45.125Z,8.80
2023-04-18T21:43:35.097Z,8.63
2023-04-18T21:48:28.921Z,8.40
2023-04-18T21:53:19.195Z,8.05
2023-04-18T21:58:09.561Z,8.05
2023-04-18T22:03:02.100Z,8.02
2023-04-18T22:07:58.393Z,8.20
2023-04-18T22:12:48.758Z,8.07
2023-04-18T22:17:38.911Z,7.93
2023-04-18T22:22:28.803Z,7.63
2023-04-18T22:27:21.304Z,8.20
2023-04-18T22:32:12.094Z,8.13
2023-04-18T22:37:01.998Z,8.02
2023-04-18T22:41:52.017Z,7.60
2023-04-18T22:46:48.320Z,7.75
2023-04-18T22:51:38.385Z,7.38
2023-04-18T22:56:29.849Z,7.18
2023-04-18T23:01:19.792Z,7.93
2023-04-18T23:06:12.504Z,7.45
2023-04-18T23:11:02.398Z,7.90
2023-04-18T23:15:53.918Z,8.13
2023-04-18T23:20:43.726Z,8.30
2023-04-18T23:25:37.580Z,8.40
2023-04-18T23:30:28.329Z,8.40
2023-04-18T23:35:18.252Z,8.37
2023-04-18T23:40:09.888Z,8.00
2023-04-18T23:45:03.766Z,8.23
2023-04-18T23:49:53.769Z,9.25
2023-04-18T23:54:43.571Z,8.48
2023-04-18T23:59:33.701Z,9.60
